createdAt,value
2023-01-20T00:01:36.140Z,58.75
2023-01-20T00:04:03.595Z,58.52
2023-01-20T00:06:30.597Z,58.78
2023-01-20T00:09:00.445Z,58.33
2023-01-20T00:11:28.342Z,58.40
2023-01-20T00:13:57.388Z,58.47
2023-01-20T00:16:24.845Z,58.34
2023-01-20T00:18:52.254Z,58.55
2023-01-20T00:21:19.583Z,58.59
2023-01-20T00:23:47.170Z,58.65
2023-01-20T00:26:20.592Z,58.61
2023-01-20T00:28:48.952Z,58.57
2023-01-20T00:31:22.501Z,58.72
2023-01-20T00:33:51.468Z,58.57
2023-01-20T00:36:20.037Z,58.77
2023-01-20T00:38:47.170Z,58.90
2023-01-20T00:41:14.579Z,58.93
2023-01-20T00:43:41.653Z,58.91
2023-01-20T00:46:09.427Z,58.41
2023-01-20T00:48:36.521Z,58.64
2023-01-20T00:51:05.162Z,58.61
2023-01-20T00:53:32.521Z,58.45
2023-01-20T00:55:59.498Z,58.53
2023-01-20T00:58:26.503Z,58.88
2023-01-20T01:00:55.293Z,58.57
2023-01-20T01:03:23.028Z,59.27
2023-01-20T01:05:50.173Z,59.08
2023-01-20T01:08:17.337Z,59.16
2023-01-20T01:10:44.275Z,60.09
2023-01-20T01:13:11.365Z,59.92
2023-01-20T01:15:38.240Z,60.54
2023-01-20T01:18:05.206Z,60.48
2023-01-20T01:20:32.091Z,60.43
2023-01-20T01:22:59.007Z,60.27
2023-01-20T01:25:25.898Z,60.89
2023-01-20T01:27:52.847Z,60.84
2023-01-20T01:30:19.865Z,60.45
2023-01-20T01:32:47.543Z,60.80
2023-01-20T01:35:14.662Z,60.49
2023-01-20T01:37:41.779Z,60.60
2023-01-20T01:40:09.515Z,60.37
2023-01-20T01:42:36.877Z,60.54
2023-01-20T01:45:30.064Z,60.74
2023-01-20T01:48:09.772Z,60.66
2023-01-20T01:50:40.180Z,60.83
2023-01-20T01:53:08.044Z,61.05
2023-01-20T01:55:39.320Z,60.40
2023-01-20T01:58:08.963Z,60.65
2023-01-20T02:00:36.111Z,61.04
2023-01-20T02:03:03.084Z,60.48
2023-01-20T02:05:31.056Z,60.84
2023-01-20T02:07:59.277Z,60.69
2023-01-20T02:10:26.460Z,60.97
2023-01-20T02:12:54.045Z,61.03
2023-01-20T02:15:28.689Z,61.14
2023-01-20T02:18:40.598Z,61.11
2023-01-20T02:21:55.223Z,61.02
2023-01-20T02:24:53.287Z,61.46
2023-01-20T02:27:43.133Z,61.32
2023-01-20T02:30:37.701Z,60.99
2023-01-20T02:33:13.161Z,61.10
2023-01-20T02:36:02.338Z,61.52
2023-01-20T02:38:56.001Z,60.91
2023-01-20T02:41:42.393Z,60.69
2023-01-20T02:44:23.070Z,60.98
2023-01-20T02:47:05.005Z,60.55
2023-01-20T02:49:59.256Z,60.94
2023-01-20T02:52:35.875Z,61.09
2023-01-20T02:55:09.488Z,61.16
2023-01-20T02:57:45.563Z,60.70
2023-01-20T03:00:26.234Z,60.61
2023-01-20T03:02:56.495Z,60.62
2023-01-20T03:05:34.898Z,60.79
2023-01-20T03:08:05.831Z,61.17
2023-01-20T03:10:35.565Z,60.82
2023-01-20T03:13:33.562Z,60.53
2023-01-20T03:16:12.835Z,60.46
2023-01-20T03:18:40.183Z,61.08
2023-01-20T03:21:09.273Z,61.27
2023-01-20T03:23:42.489Z,61.53
2023-01-20T03:26:12.820Z,61.49
2023-01-20T03:28:42.679Z,61.62
2023-01-20T03:31:22.378Z,61.99
2023-01-20T03:33:52.471Z,62.19
2023-01-20T03:36:22.256Z,62.70
2023-01-20T03:38:50.081Z,63.14
2023-01-20T03:41:38.572Z,63.05
2023-01-20T03:44:27.270Z,63.24
2023-01-20T03:47:10.761Z,63.24
2023-01-20T03:49:52.594Z,63.64
2023-01-20T03:52:48.295Z,63.05
2023-01-20T03:55:30.889Z,63.22
2023-01-20T03:58:28.573Z,63.47
2023-01-20T04:00:57.609Z,63.65
2023-01-20T04:03:30.150Z,63.22
2023-01-20T04:06:03.347Z,63.62
2023-01-20T04:08:40.981Z,62.89
2023-01-20T04:11:08.932Z,63.36
2023-01-20T04:13:36.164Z,63.09
2023-01-20T04:16:09.317Z,63.28
2023-01-20T04:18:42.269Z,62.65
2023-01-20T04:21:16.117Z,62.68
2023-01-20T04:23:54.438Z,62.48
2023-01-20T04:26:21.393Z,62.90
2023-01-20T04:28:48.267Z,62.59
2023-01-20T04:31:29.272Z,62.65
2023-01-20T04:33:56.826Z,62.62
2023-01-20T04:36:23.758Z,62.60
2023-01-20T04:38:50.675Z,62.08
2023-01-20T04:41:17.581Z,62.30
2023-01-20T04:43:45.388Z,62.08
2023-01-20T04:46:13.428Z,61.92
2023-01-20T04:48:40.349Z,62.44
2023-01-20T04:51:08.484Z,62.33
2023-01-20T04:53:35.657Z,62.48
2023-01-20T04:56:02.535Z,61.96
2023-01-20T04:58:29.412Z,61.81
2023-01-20T05:00:56.276Z,62.25
2023-01-20T05:03:23.210Z,61.76
2023-01-20T05:05:54.443Z,62.20
2023-01-20T05:08:21.373Z,61.58
2023-01-20T05:10:48.543Z,61.91
2023-01-20T05:13:15.450Z,61.57
2023-01-20T05:15:44.157Z,61.73
2023-01-20T05:18:11.267Z,61.29
2023-01-20T05:20:38.201Z,61.13
2023-01-20T05:23:05.165Z,60.95
2023-01-20T05:25:32.393Z,61.23
2023-01-20T05:28:00.662Z,60.92
2023-01-20T05:30:27.809Z,61.05
2023-01-20T05:32:54.750Z,60.90
2023-01-20T05:35:21.847Z,60.87
2023-01-20T05:37:48.783Z,60.96
2023-01-20T05:40:15.798Z,60.64
2023-01-20T05:42:42.687Z,61.21
2023-01-20T05:45:09.873Z,61.14
2023-01-20T05:47:36.837Z,60.94
2023-01-20T05:50:05.007Z,61.28
2023-01-20T05:52:32.005Z,60.83
2023-01-20T05:54:58.876Z,61.30
2023-01-20T05:57:26.687Z,61.09
2023-01-20T05:59:55.622Z,60.50
2023-01-20T06:02:22.636Z,61.30
2023-01-20T06:04:49.665Z,60.27
2023-01-20T06:07:16.579Z,60.28
2023-01-20T06:09:43.500Z,60.18
2023-01-20T06:12:10.412Z,60.69
2023-01-20T06:14:37.293Z,60.56
2023-01-20T06:17:04.401Z,60.59
2023-01-20T06:19:31.269Z,60.30
2023-01-20T06:21:58.172Z,60.69
2023-01-20T06:24:25.054Z,60.68
2023-01-20T06:26:51.983Z,60.65
2023-01-20T06:29:18.884Z,60.65
2023-01-20T06:31:45.836Z,60.65
2023-01-20T06:34:13.110Z,60.25
2023-01-20T06:36:40.391Z,60.50
2023-01-20T06:39:07.355Z,60.18
2023-01-20T06:41:34.333Z,60.29
2023-01-20T06:44:01.247Z,60.64
2023-01-20T06:46:28.161Z,60.60
2023-01-20T06:49:00.365Z,60.52
2023-01-20T06:51:29.919Z,60.29
2023-01-20T06:53:57.285Z,60.25
2023-01-20T06:56:24.880Z,60.14
2023-01-20T06:58:52.089Z,60.68
2023-01-20T07:01:23.968Z,60.42
2023-01-20T07:03:51.303Z,60.40
2023-01-20T07:06:31.128Z,60.31
2023-01-20T07:08:59.905Z,60.72
2023-01-20T07:11:27.991Z,60.38
2023-01-20T07:13:55.037Z,60.56
2023-01-20T07:16:21.939Z,60.83
2023-01-20T07:18:51.030Z,61.00
2023-01-20T07:21:18.668Z,60.52
2023-01-20T07:23:46.162Z,60.45
2023-01-20T07:26:19.412Z,60.80
2023-01-20T07:28:47.491Z,60.70
2023-01-20T07:31:20.946Z,60.28
2023-01-20T07:33:48.422Z,60.69
2023-01-20T07:36:16.427Z,60.45
2023-01-20T07:38:43.347Z,60.55
2023-01-20T07:41:15.988Z,60.60
2023-01-20T07:43:48.082Z,59.97
2023-01-20T07:46:16.215Z,59.67
2023-01-20T07:48:43.477Z,60.07
2023-01-20T07:51:13.323Z,60.42
2023-01-20T07:53:46.550Z,60.61
2023-01-20T07:56:22.219Z,60.63
2023-01-20T07:58:50.582Z,60.51
2023-01-20T08:01:24.987Z,60.30
2023-01-20T08:03:52.120Z,59.94
2023-01-20T08:06:22.965Z,60.41
2023-01-20T08:08:50.226Z,60.08
2023-01-20T08:11:19.372Z,59.65
2023-01-20T08:13:46.965Z,60.05
2023-01-20T08:16:16.403Z,59.51
2023-01-20T08:18:44.232Z,59.45
2023-01-20T08:21:30.649Z,59.75
2023-01-20T08:23:59.523Z,60.06
2023-01-20T08:26:29.477Z,59.45
2023-01-20T08:29:05.344Z,59.69
2023-01-20T08:31:32.354Z,59.48
2023-01-20T08:33:59.701Z,59.23
2023-01-20T08:36:33.720Z,59.19
2023-01-20T08:39:03.111Z,59.05
2023-01-20T08:41:35.036Z,59.68
2023-01-20T08:44:07.671Z,59.14
2023-01-20T08:46:35.529Z,59.69
2023-01-20T08:49:02.476Z,59.21
2023-01-20T08:51:32.175Z,59.31
2023-01-20T08:54:00.154Z,59.05
2023-01-20T08:56:28.172Z,59.26
2023-01-20T08:58:57.229Z,59.50
2023-01-20T09:01:27.874Z,59.12
2023-01-20T09:04:05.378Z,59.15
2023-01-20T09:06:49.408Z,58.59
2023-01-20T09:09:19.637Z,58.68
2023-01-20T09:11:51.054Z,58.32
2023-01-20T09:14:24.273Z,58.65
2023-01-20T09:16:51.630Z,58.95
2023-01-20T09:19:18.516Z,57.89
2023-01-20T09:21:45.404Z,57.78
2023-01-20T09:24:12.352Z,57.59
2023-01-20T09:26:41.605Z,57.84
2023-01-20T09:29:13.572Z,57.66
2023-01-20T09:31:52.769Z,57.56
2023-01-20T09:34:21.395Z,58.06
2023-01-20T09:37:19.528Z,58.03
2023-01-20T09:40:05.460Z,58.09
2023-01-20T09:43:33.869Z,57.54
2023-01-20T09:46:44.445Z,57.55
2023-01-20T09:49:51.444Z,57.13
2023-01-20T09:52:48.343Z,57.11
2023-01-20T09:55:43.003Z,57.05
2023-01-20T09:58:26.105Z,57.14
2023-01-20T10:01:11.262Z,57.16
2023-01-20T10:03:50.532Z,57.35
2023-01-20T10:06:26.446Z,57.07
2023-01-20T10:09:05.505Z,57.36
2023-01-20T10:11:43.704Z,57.27
2023-01-20T10:14:18.407Z,56.81
2023-01-20T10:17:19.393Z,56.91
2023-01-20T10:20:02.570Z,56.47
2023-01-20T10:22:41.127Z,56.09
2023-01-20T10:25:20.581Z,56.21
2023-01-20T10:27:56.167Z,56.31
2023-01-20T10:30:30.596Z,56.60
2023-01-20T10:33:09.677Z,55.95
2023-01-20T10:35:42.457Z,56.10
2023-01-20T10:38:22.824Z,55.95
2023-01-20T10:41:35.202Z,55.32
2023-01-20T10:44:03.803Z,55.65
2023-01-20T10:47:05.073Z,55.67
2023-01-20T10:50:18.131Z,55.85
2023-01-20T10:53:15.454Z,55.80
2023-01-20T10:56:04.027Z,55.84
2023-01-20T10:58:33.759Z,55.75
2023-01-20T11:01:06.826Z,55.31
2023-01-20T11:03:42.356Z,55.22
2023-01-20T11:06:22.098Z,54.95
2023-01-20T11:08:49.846Z,55.04
2023-01-20T11:11:23.223Z,55.29
2023-01-20T11:13:52.179Z,55.22
2023-01-20T11:16:28.653Z,55.15
2023-01-20T11:19:00.823Z,55.33
2023-01-20T11:21:31.716Z,55.14
2023-01-20T11:23:59.968Z,55.10
2023-01-20T11:26:37.064Z,54.65
2023-01-20T11:29:09.960Z,55.09
2023-01-20T11:31:48.332Z,54.66
2023-01-20T11:34:22.661Z,54.71
2023-01-20T11:37:20.889Z,54.93
2023-01-20T11:39:50.714Z,54.64
2023-01-20T11:42:21.416Z,54.36
2023-01-20T11:44:52.553Z,53.71
2023-01-20T11:47:26.704Z,53.71
2023-01-20T11:50:08.695Z,54.08
2023-01-20T11:52:45.717Z,53.62
2023-01-20T11:55:16.558Z,54.14
2023-01-20T11:57:58.755Z,53.92
2023-01-20T12:00:40.194Z,53.89
2023-01-20T12:03:47.260Z,53.85
2023-01-20T12:06:27.351Z,53.70
2023-01-20T12:09:11.000Z,53.06
2023-01-20T12:11:50.313Z,53.63
2023-01-20T12:14:41.047Z,53.24
2023-01-20T12:17:41.831Z,53.46
2023-01-20T12:20:55.655Z,53.60
2023-01-20T12:23:58.281Z,53.59
2023-01-20T12:26:27.657Z,52.97
2023-01-20T12:29:30.125Z,52.95
2023-01-20T12:31:57.083Z,53.02
2023-01-20T12:34:34.384Z,53.26
2023-01-20T12:37:31.847Z,53.14
2023-01-20T12:40:24.929Z,53.08
2023-01-20T12:43:18.952Z,53.07
2023-01-20T12:46:56.286Z,53.14
2023-01-20T12:50:08.495Z,52.93
2023-01-20T12:53:16.824Z,52.98
2023-01-20T12:56:27.097Z,53.12
2023-01-20T12:59:38.076Z,53.00
2023-01-20T13:02:40.105Z,53.17
2023-01-20T13:05:24.721Z,53.04
2023-01-20T13:08:29.844Z,53.01
2023-01-20T13:11:38.881Z,52.94
2023-01-20T13:14:21.192Z,53.20
2023-01-20T13:17:14.409Z,53.09
2023-01-20T13:19:43.005Z,53.28
2023-01-20T13:22:22.111Z,53.12
2023-01-20T13:24:53.983Z,52.77
2023-01-20T13:27:28.257Z,53.17
2023-01-20T13:29:58.312Z,53.10
2023-01-20T13:32:46.175Z,53.03
2023-01-20T13:35:18.662Z,53.03
2023-01-20T13:37:57.916Z,53.20
2023-01-20T13:40:37.015Z,53.06
2023-01-20T13:43:22.815Z,52.91
2023-01-20T13:46:17.474Z,52.88
2023-01-20T13:49:24.820Z,53.10
2023-01-20T13:51:51.850Z,52.97
2023-01-20T13:54:37.881Z,53.43
2023-01-20T13:57:27.973Z,53.10
2023-01-20T13:59:56.075Z,53.14
2023-01-20T14:02:28.832Z,53.20
2023-01-20T14:04:56.231Z,53.07
2023-01-20T14:07:32.774Z,53.10
2023-01-20T14:10:01.781Z,52.96
2023-01-20T14:12:28.840Z,53.27
2023-01-20T14:14:55.827Z,52.80
2023-01-20T14:17:24.572Z,52.89
2023-01-20T14:19:54.627Z,53.16
2023-01-20T14:22:31.803Z,53.20
2023-01-20T14:25:00.658Z,52.94
2023-01-20T14:27:32.085Z,52.92
2023-01-20T14:30:20.287Z,53.18
2023-01-20T14:32:47.183Z,53.12
2023-01-20T14:35:32.217Z,53.48
2023-01-20T14:37:59.891Z,53.24
2023-01-20T14:40:31.473Z,53.43
2023-01-20T14:43:20.460Z,53.54
2023-01-20T14:45:51.519Z,53.37
2023-01-20T14:48:33.479Z,53.52
2023-01-20T14:51:04.041Z,53.47
2023-01-20T14:53:30.993Z,53.65
2023-01-20T14:56:03.207Z,53.94
2023-01-20T14:58:30.639Z,53.73
2023-01-20T15:01:02.519Z,53.85
2023-01-20T15:03:30.676Z,53.98
2023-01-20T15:06:18.048Z,54.05
2023-01-20T15:09:04.310Z,53.89
2023-01-20T15:11:32.845Z,54.02
2023-01-20T15:14:02.679Z,53.96
2023-01-20T15:16:36.467Z,53.62
2023-01-20T15:19:16.147Z,53.80
2023-01-20T15:22:12.603Z,54.24
2023-01-20T15:24:40.326Z,53.51
2023-01-20T15:27:30.458Z,53.98
2023-01-20T15:30:00.302Z,53.93
2023-01-20T15:32:27.183Z,54.11
2023-01-20T15:34:54.063Z,54.10
2023-01-20T15:37:20.982Z,53.65
2023-01-20T15:39:47.877Z,53.70
2023-01-20T15:42:15.372Z,54.14
2023-01-20T15:44:42.321Z,54.07
2023-01-20T15:47:35.731Z,54.32
2023-01-20T15:50:02.612Z,54.29
2023-01-20T15:52:29.571Z,54.20
2023-01-20T15:54:56.458Z,54.21
2023-01-20T15:57:23.489Z,54.29
2023-01-20T15:59:50.399Z,54.08
2023-01-20T16:02:23.972Z,54.27
2023-01-20T16:04:51.234Z,54.33
2023-01-20T16:07:20.681Z,54.66
2023-01-20T16:09:47.640Z,54.12
2023-01-20T16:12:17.783Z,54.17
2023-01-20T16:14:45.284Z,54.52
2023-01-20T16:17:15.868Z,54.31
2023-01-20T16:19:42.780Z,54.28
2023-01-20T16:22:10.617Z,54.79
2023-01-20T16:24:38.238Z,54.46
2023-01-20T16:27:14.888Z,54.65
2023-01-20T16:29:41.777Z,54.51
2023-01-20T16:32:08.678Z,54.51
2023-01-20T16:34:35.609Z,54.38
2023-01-20T16:37:02.556Z,54.79
2023-01-20T16:39:29.621Z,54.79
2023-01-20T16:41:56.531Z,54.53
2023-01-20T16:44:23.406Z,54.99
2023-01-20T16:46:50.299Z,54.91
2023-01-20T16:49:17.921Z,54.92
2023-01-20T16:51:44.821Z,54.80
2023-01-20T16:54:11.900Z,55.07
2023-01-20T16:56:40.152Z,54.90
2023-01-20T16:59:08.060Z,55.10
2023-01-20T17:01:34.955Z,54.87
2023-01-20T17:04:03.082Z,54.99
2023-01-20T17:06:34.775Z,54.72
2023-01-20T17:09:04.998Z,54.97
2023-01-20T17:11:38.351Z,54.71
2023-01-20T17:14:08.762Z,54.82
2023-01-20T17:16:36.145Z,55.00
2023-01-20T17:19:03.574Z,54.55
2023-01-20T17:21:32.796Z,54.58
2023-01-20T17:24:02.912Z,54.95
2023-01-20T17:26:30.624Z,54.79
2023-01-20T17:29:03.520Z,54.57
2023-01-20T17:31:36.532Z,54.74
2023-01-20T17:34:07.411Z,54.99
2023-01-20T17:36:34.702Z,55.19
2023-01-20T17:39:03.888Z,55.05
2023-01-20T17:41:30.855Z,55.06
2023-01-20T17:43:57.771Z,55.42
2023-01-20T17:46:28.749Z,55.81
2023-01-20T17:49:04.726Z,56.02
2023-01-20T17:51:31.694Z,56.00
2023-01-20T17:54:01.224Z,56.18
2023-01-20T17:56:30.159Z,56.53
2023-01-20T17:58:57.085Z,56.32
2023-01-20T18:01:29.930Z,56.17
2023-01-20T18:04:00.986Z,56.31
2023-01-20T18:06:28.924Z,56.86
2023-01-20T18:08:59.183Z,56.52
2023-01-20T18:11:30.128Z,56.30
2023-01-20T18:13:59.346Z,56.46
2023-01-20T18:16:33.478Z,56.68
2023-01-20T18:19:01.260Z,56.67
2023-01-20T18:21:37.123Z,56.67
2023-01-20T18:24:07.359Z,56.51
2023-01-20T18:26:37.207Z,56.55
2023-01-20T18:29:13.008Z,56.41
2023-01-20T18:31:40.135Z,55.87
2023-01-20T18:34:10.694Z,56.38
2023-01-20T18:36:40.607Z,55.75
2023-01-20T18:39:14.548Z,55.70
2023-01-20T18:41:41.501Z,55.71
2023-01-20T18:44:08.826Z,55.85
2023-01-20T18:46:36.010Z,56.08
2023-01-20T18:49:03.445Z,55.79
2023-01-20T18:51:31.340Z,55.55
2023-01-20T18:54:05.857Z,56.03
2023-01-20T18:56:33.512Z,55.43
2023-01-20T18:59:02.140Z,55.32
2023-01-20T19:01:33.787Z,55.63
2023-01-20T19:04:03.496Z,55.81
2023-01-20T19:06:35.103Z,55.21
2023-01-20T19:09:03.137Z,55.61
2023-01-20T19:11:34.263Z,55.90
2023-01-20T19:14:01.353Z,56.01
2023-01-20T19:16:32.593Z,56.12
2023-01-20T19:19:06.340Z,56.03
2023-01-20T19:21:36.125Z,56.33
2023-01-20T19:24:06.122Z,56.23
2023-01-20T19:26:36.571Z,56.32
2023-01-20T19:29:07.017Z,55.89
2023-01-20T19:31:38.037Z,56.31
2023-01-20T19:34:06.723Z,55.89
2023-01-20T19:36:33.851Z,56.04
2023-01-20T19:39:01.083Z,55.73
2023-01-20T19:41:33.341Z,56.21
2023-01-20T19:44:03.130Z,56.13
2023-01-20T19:46:33.809Z,55.69
2023-01-20T19:49:02.232Z,55.76
2023-01-20T19:51:31.129Z,55.98
2023-01-20T19:54:00.030Z,56.00
2023-01-20T19:56:30.331Z,56.23
2023-01-20T19:58:57.529Z,55.92
2023-01-20T20:01:31.332Z,56.12
2023-01-20T20:03:59.439Z,56.45
2023-01-20T20:06:46.196Z,56.56
2023-01-20T20:09:18.821Z,56.28
2023-01-20T20:11:46.959Z,56.40
2023-01-20T20:14:17.939Z,56.41
2023-01-20T20:16:45.218Z,56.25
2023-01-20T20:19:16.116Z,56.74
2023-01-20T20:21:43.796Z,56.65
2023-01-20T20:24:13.468Z,56.43
2023-01-20T20:26:40.673Z,56.40
2023-01-20T20:29:08.285Z,56.89
2023-01-20T20:31:37.618Z,56.54
2023-01-20T20:34:11.561Z,56.83
2023-01-20T20:36:39.678Z,57.01
2023-01-20T20:39:07.842Z,56.41
2023-01-20T20:41:36.534Z,56.57
2023-01-20T20:44:03.996Z,56.97
2023-01-20T20:46:31.281Z,56.66
2023-01-20T20:49:00.960Z,56.45
2023-01-20T20:51:34.139Z,57.13
2023-01-20T20:54:02.839Z,56.84
2023-01-20T20:56:33.900Z,56.52
2023-01-20T20:59:03.548Z,56.78
2023-01-20T21:01:33.381Z,56.62
2023-01-20T21:04:01.436Z,57.13
2023-01-20T21:06:29.630Z,57.47
2023-01-20T21:08:56.991Z,56.83
2023-01-20T21:11:24.874Z,57.12
2023-01-20T21:13:52.742Z,57.31
2023-01-20T21:16:22.925Z,57.03
2023-01-20T21:18:52.194Z,57.12
2023-01-20T21:21:20.363Z,57.23
2023-01-20T21:23:58.575Z,57.83
2023-01-20T21:26:30.056Z,57.22
2023-01-20T21:29:00.181Z,58.01
2023-01-20T21:31:27.174Z,57.16
2023-01-20T21:33:58.314Z,57.19
2023-01-20T21:36:26.295Z,57.48
2023-01-20T21:38:53.214Z,57.26
2023-01-20T21:41:20.202Z,56.87
2023-01-20T21:44:06.411Z,56.95
2023-01-20T21:46:39.829Z,57.28
2023-01-20T21:49:28.626Z,56.94
2023-01-20T21:52:15.090Z,57.56
2023-01-20T21:54:42.226Z,57.42
2023-01-20T21:57:09.363Z,57.58
2023-01-20T21:59:36.767Z,57.66
2023-01-20T22:02:03.756Z,57.24
2023-01-20T22:04:30.664Z,57.45
2023-01-20T22:06:57.677Z,57.55
2023-01-20T22:09:24.596Z,57.46
2023-01-20T22:11:51.521Z,57.22
2023-01-20T22:14:18.442Z,57.37
2023-01-20T22:16:45.392Z,57.36
2023-01-20T22:19:13.969Z,56.99
2023-01-20T22:21:41.277Z,57.15
2023-01-20T22:24:09.093Z,57.45
2023-01-20T22:26:36.037Z,57.22
2023-01-20T22:29:03.277Z,57.49
2023-01-20T22:31:31.792Z,57.33
2023-01-20T22:34:04.178Z,57.28
2023-01-20T22:36:32.046Z,57.32
2023-01-20T22:38:59.495Z,56.75
2023-01-20T22:41:26.758Z,56.88
2023-01-20T22:43:55.220Z,56.71
2023-01-20T22:46:24.577Z,56.61
2023-01-20T22:48:51.532Z,56.15
2023-01-20T22:51:21.777Z,56.35
2023-01-20T22:53:49.612Z,56.44
2023-01-20T22:56:22.930Z,56.08
2023-01-20T22:58:49.810Z,56.04
2023-01-20T23:01:19.061Z,56.01
2023-01-20T23:03:46.922Z,56.25
2023-01-20T23:06:14.840Z,56.10
2023-01-20T23:08:42.065Z,56.02
2023-01-20T23:11:14.938Z,56.44
2023-01-20T23:13:42.487Z,55.73
2023-01-20T23:16:15.092Z,56.27
2023-01-20T23:18:42.373Z,56.09
2023-01-20T23:21:09.257Z,56.01
2023-01-20T23:23:36.805Z,55.75
2023-01-20T23:26:06.441Z,56.17
2023-01-20T23:28:35.170Z,55.96
2023-01-20T23:31:07.933Z,56.06
2023-01-20T23:33:35.358Z,55.80
2023-01-20T23:36:07.504Z,55.77
2023-01-20T23:38:34.450Z,56.61
2023-01-20T23:41:02.364Z,56.17
2023-01-20T23:43:30.597Z,56.29
2023-01-20T23:45:59.192Z,56.38
2023-01-20T23:48:26.724Z,56.37
2023-01-20T23:50:54.708Z,56.48
2023-01-20T23:53:22.161Z,56.15
2023-01-20T23:55:49.055Z,56.28
2023-01-20T23:58:15.972Z,57.10
